Terminal Aerodrome Forecast
Issued by NWS

Home | Current Version | Previous Version | Text Only | Print | Product List | Glossary Off
Versions: 1 2 3 4 5 6 7 8 9 10 11 12 13

000
FTUS45 KRIW 181700
TAFBPI
TAF
KBPI 181723Z 1818/1918 26014G20KT P6SM VCSH SCT050 BKN080
     FM182000 28020G30KT P6SM VCSH BKN050
     FM190100 34007KT P6SM SCT060=

USA.gov is the U.S. government's official web portal to all federal, state and local government web resources and services.